Time;durP1;ratioP1;P1;durP2;ratioP2;P2;SDS_P1;SDS_P2;PMS_P1;PMS_P2;Temp;Humidity;BMP_temperature;BMP_pressure;BME280_temperature;BME280_humidity;BME280_pressure;Samples;Min_cycle;Max_cycle;Signal;HPM_P1;HPM_P2
2023/01/08 00:01:42;;;;;;;11.60;8.23;;;7.50;99.90;;;;;;4964609;28;20027;-73
2023/01/08 00:04:08;;;;;;;10.55;7.75;;;7.50;99.90;;;;;;4961405;28;20154;-73
2023/01/08 00:06:34;;;;;;;12.82;7.75;;;7.50;99.90;;;;;;4970738;28;20023;-73
2023/01/08 00:09:00;;;;;;;9.82;7.50;;;7.50;99.90;;;;;;4966891;28;20030;-73
2023/01/08 00:11:26;;;;;;;10.90;7.65;;;7.50;99.90;;;;;;4968125;28;20030;-73
2023/01/08 00:13:51;;;;;;;10.70;6.78;;;7.60;99.90;;;;;;4970634;28;20027;-73
2023/01/08 00:16:18;;;;;;;9.73;6.30;;;7.60;99.90;;;;;;4971449;28;20023;-70
2023/01/08 00:18:45;;;;;;;10.75;6.80;;;7.60;99.90;;;;;;4977441;28;20031;-71
2023/01/08 00:21:11;;;;;;;10.38;6.82;;;7.70;99.90;;;;;;4977412;28;20023;-70
2023/01/08 00:23:37;;;;;;;12.35;7.25;;;7.70;99.90;;;;;;4977565;28;20070;-71
2023/01/08 00:26:08;;;;;;;12.43;6.95;;;7.70;99.90;;;;;;4977189;28;20048;-70
2023/01/08 00:28:35;;;;;;;8.38;6.07;;;7.70;99.90;;;;;;4977418;28;20105;-70
2023/01/08 00:31:05;;;;;;;9.15;6.40;;;7.80;99.90;;;;;;4977460;28;20368;-70
2023/01/08 00:33:31;;;;;;;8.90;6.13;;;7.90;99.90;;;;;;4977340;28;20031;-70
2023/01/08 00:35:57;;;;;;;13.48;6.22;;;7.90;99.90;;;;;;4977505;28;20023;-70
2023/01/08 00:38:27;;;;;;;8.45;5.63;;;7.90;99.90;;;;;;4977526;28;20114;-70
2023/01/08 00:40:52;;;;;;;10.25;6.25;;;8.00;99.90;;;;;;4977310;28;20023;-70
2023/01/08 00:43:18;;;;;;;12.75;6.88;;;8.00;99.90;;;;;;4976844;28;20031;-70
2023/01/08 00:45:43;;;;;;;8.68;6.10;;;8.00;99.90;;;;;;4966046;28;20033;-70
2023/01/08 00:48:09;;;;;;;9.15;6.38;;;8.00;99.90;;;;;;4976599;28;20035;-70
2023/01/08 00:50:35;;;;;;;8.57;6.30;;;8.00;99.90;;;;;;4977075;28;20022;-70
2023/01/08 00:53:02;;;;;;;11.20;6.35;;;8.00;99.90;;;;;;4976741;28;20046;-70
2023/01/08 00:55:28;;;;;;;12.25;5.68;;;8.10;99.90;;;;;;4976808;28;20030;-70
2023/01/08 00:57:53;;;;;;;11.30;5.75;;;8.10;99.90;;;;;;4976412;28;20106;-70
2023/01/08 01:00:19;;;;;;;8.02;5.50;;;8.10;99.90;;;;;;4977350;28;20474;-70
2023/01/08 01:02:45;;;;;;;10.05;6.38;;;8.10;99.90;;;;;;4976879;28;20093;-70
2023/01/08 01:05:16;;;;;;;10.93;6.35;;;8.10;99.90;;;;;;4975737;28;20541;-70
2023/01/08 01:07:42;;;;;;;8.65;6.38;;;8.10;99.90;;;;;;4976902;28;20097;-70
2023/01/08 01:10:09;;;;;;;7.93;5.28;;;8.10;99.90;;;;;;4976936;28;20050;-70
2023/01/08 01:12:37;;;;;;;10.35;6.40;;;8.10;99.90;;;;;;4976743;28;20065;-70
2023/01/08 01:15:04;;;;;;;11.38;5.63;;;8.10;99.90;;;;;;4977054;28;20495;-70
2023/01/08 01:17:30;;;;;;;10.07;5.88;;;8.10;99.90;;;;;;4976708;28;20058;-71
2023/01/08 01:19:55;;;;;;;8.88;5.13;;;8.10;99.90;;;;;;4976747;28;20364;-70
2023/01/08 01:22:21;;;;;;;18.10;6.50;;;8.10;99.90;;;;;;4976663;28;20023;-71
2023/01/08 01:24:46;;;;;;;7.78;5.40;;;8.20;99.90;;;;;;4976900;28;20050;-70
2023/01/08 01:27:12;;;;;;;11.15;5.45;;;8.20;99.90;;;;;;4976510;28;20022;-70
2023/01/08 01:29:37;;;;;;;6.93;5.40;;;8.20;99.90;;;;;;4976448;28;20118;-70
2023/01/08 01:32:05;;;;;;;7.90;5.85;;;8.20;99.90;;;;;;4976584;28;20443;-70
2023/01/08 01:34:31;;;;;;;8.40;6.20;;;8.20;99.90;;;;;;4976506;28;20034;-70
2023/01/08 01:36:56;;;;;;;9.27;5.70;;;8.10;99.90;;;;;;4976669;28;20031;-70
2023/01/08 01:39:22;;;;;;;7.38;5.88;;;8.10;99.90;;;;;;4976854;28;20030;-70
2023/01/08 01:41:47;;;;;;;10.55;7.25;;;8.20;99.90;;;;;;4976551;28;20022;-70
2023/01/08 01:44:39;;;;;;;11.18;6.10;;;8.20;99.90;;;;;;4977119;28;20026;-70
2023/01/08 01:47:24;;;;;;;9.70;6.00;;;8.10;99.90;;;;;;4976373;28;20061;-71
2023/01/08 01:50:06;;;;;;;8.65;6.15;;;8.10;99.90;;;;;;4976174;28;20019;-70
2023/01/08 01:52:39;;;;;;;12.75;6.30;;;8.10;99.90;;;;;;4976408;28;20418;-70
2023/01/08 01:55:06;;;;;;;9.98;6.22;;;8.10;99.90;;;;;;4976490;28;20061;-70
2023/01/08 01:57:32;;;;;;;11.00;6.78;;;8.10;99.90;;;;;;4976109;28;20038;-70
2023/01/08 02:00:00;;;;;;;15.55;7.40;;;8.00;99.90;;;;;;4975515;28;20082;-70
2023/01/08 02:02:26;;;;;;;12.90;6.38;;;8.00;99.90;;;;;;4974379;28;20023;-71
2023/01/08 02:04:52;;;;;;;8.80;6.55;;;8.10;99.90;;;;;;4976516;28;20019;-70
2023/01/08 02:07:34;;;;;;;12.30;7.38;;;8.10;99.90;;;;;;4975800;28;20014;-70
2023/01/08 02:10:23;;;;;;;9.65;6.45;;;8.20;99.90;;;;;;4974931;28;20030;-71
2023/01/08 02:13:04;;;;;;;8.13;6.38;;;8.20;99.90;;;;;;4956847;28;20379;-70
2023/01/08 02:15:58;;;;;;;12.77;6.15;;;8.20;99.90;;;;;;4958505;28;20050;-70
2023/01/08 02:18:33;;;;;;;8.57;6.22;;;8.20;99.90;;;;;;4975550;28;20030;-70
2023/01/08 02:21:09;;;;;;;12.30;6.07;;;8.20;99.90;;;;;;4975916;28;20031;-70
2023/01/08 02:23:41;;;;;;;11.88;6.22;;;8.30;99.90;;;;;;4973753;28;20113;-71
2023/01/08 02:26:16;;;;;;;14.40;6.07;;;8.30;99.90;;;;;;4975600;28;20019;-70
2023/01/08 02:28:50;;;;;;;8.77;6.00;;;8.40;99.90;;;;;;4973841;28;20470;-71
2023/01/08 02:31:17;;;;;;;8.15;5.13;;;8.40;99.90;;;;;;4957092;28;20050;-71
2023/01/08 02:33:43;;;;;;;9.73;6.57;;;8.40;99.90;;;;;;4975390;28;20027;-70
2023/01/08 02:36:11;;;;;;;11.10;6.25;;;8.40;99.90;;;;;;4975247;28;20053;-70
2023/01/08 02:38:49;;;;;;;10.60;6.10;;;8.40;99.90;;;;;;4974977;28;20078;-70
2023/01/08 02:41:16;;;;;;;9.02;6.03;;;8.40;99.90;;;;;;4975653;28;20030;-70
2023/01/08 02:43:48;;;;;;;8.30;5.75;;;8.40;99.90;;;;;;4975300;28;20106;-71
2023/01/08 02:46:21;;;;;;;13.82;5.70;;;8.40;99.90;;;;;;4975174;28;20422;-70
2023/01/08 02:48:50;;;;;;;9.82;5.65;;;8.40;99.90;;;;;;4975581;28;20066;-70
2023/01/08 02:51:15;;;;;;;10.90;5.82;;;8.40;99.90;;;;;;4975430;28;20356;-70
2023/01/08 02:53:45;;;;;;;16.42;5.68;;;8.30;99.90;;;;;;4975108;28;20049;-70
2023/01/08 02:56:31;;;;;;;8.68;5.72;;;8.20;99.90;;;;;;4974955;28;20077;-70
2023/01/08 02:58:58;;;;;;;9.90;5.65;;;8.20;99.90;;;;;;4975312;28;20109;-70
2023/01/08 03:01:26;;;;;;;9.05;6.68;;;8.10;99.90;;;;;;4974960;28;20073;-70
2023/01/08 03:04:05;;;;;;;8.63;5.97;;;8.10;99.90;;;;;;4975198;28;20074;-70
2023/01/08 03:06:31;;;;;;;13.75;7.00;;;8.00;99.90;;;;;;4975165;28;20037;-70
2023/01/08 03:08:59;;;;;;;9.43;6.28;;;8.00;99.90;;;;;;4974822;28;20109;-70
2023/01/08 03:11:30;;;;;;;9.35;6.10;;;8.00;99.90;;;;;;4974054;28;20038;-70
2023/01/08 03:14:03;;;;;;;10.95;6.07;;;8.00;99.90;;;;;;4975242;28;20030;-70
2023/01/08 03:16:44;;;;;;;15.70;6.90;;;8.00;99.90;;;;;;4975145;28;20498;-70
2023/01/08 03:19:24;;;;;;;8.50;6.30;;;8.00;99.90;;;;;;4974989;28;20027;-70
2023/01/08 03:21:51;;;;;;;8.40;5.97;;;8.00;99.90;;;;;;4974837;28;20097;-70
2023/01/08 03:24:21;;;;;;;10.32;6.05;;;7.90;99.90;;;;;;4974739;28;20406;-70
2023/01/08 03:26:50;;;;;;;9.20;5.80;;;8.00;99.90;;;;;;4975126;28;20019;-70
2023/01/08 03:29:19;;;;;;;13.32;6.35;;;8.00;99.90;;;;;;4973234;28;20372;-70
2023/01/08 03:31:47;;;;;;;12.23;6.30;;;7.90;99.90;;;;;;4974714;28;20035;-70
2023/01/08 03:34:15;;;;;;;9.45;6.53;;;7.90;99.90;;;;;;4974639;28;20027;-70
2023/01/08 03:36:45;;;;;;;7.95;6.10;;;7.80;99.90;;;;;;4974641;28;20195;-70
2023/01/08 03:39:36;;;;;;;9.63;6.05;;;7.90;99.90;;;;;;4974905;28;20046;-70
2023/01/08 03:42:08;;;;;;;10.15;6.78;;;7.90;99.90;;;;;;4975443;28;20034;-70
2023/01/08 03:44:33;;;;;;;11.13;7.07;;;7.90;99.90;;;;;;4974852;28;20513;-70
2023/01/08 03:46:59;;;;;;;9.00;6.35;;;8.00;99.90;;;;;;4974550;28;20043;-70
2023/01/08 03:49:28;;;;;;;8.82;6.57;;;8.10;99.90;;;;;;4975000;28;20035;-70
2023/01/08 03:51:53;;;;;;;8.25;6.35;;;8.10;99.90;;;;;;4974532;28;20034;-70
2023/01/08 03:54:24;;;;;;;9.75;6.25;;;8.30;99.90;;;;;;4974564;28;20030;-70
2023/01/08 03:56:49;;;;;;;12.20;6.72;;;8.30;99.90;;;;;;4974458;28;20035;-70
2023/01/08 03:59:16;;;;;;;10.90;7.22;;;8.30;99.90;;;;;;4974608;28;20498;-70
2023/01/08 04:01:41;;;;;;;9.43;6.38;;;8.30;99.90;;;;;;4974390;28;20038;-70
2023/01/08 04:04:09;;;;;;;16.88;7.40;;;8.30;99.90;;;;;;4974379;28;20023;-70
2023/01/08 04:06:35;;;;;;;7.35;5.85;;;8.20;99.90;;;;;;4974320;28;20532;-70
2023/01/08 04:09:00;;;;;;;9.88;6.57;;;8.10;99.90;;;;;;4967682;28;20119;-70
2023/01/08 04:11:26;;;;;;;10.48;6.05;;;8.10;99.90;;;;;;4958801;28;20110;-70
2023/01/08 04:13:52;;;;;;;13.25;7.18;;;8.10;99.90;;;;;;4972494;28;20034;-70
2023/01/08 04:16:17;;;;;;;11.18;6.40;;;8.10;99.90;;;;;;4974085;28;20027;-70
2023/01/08 04:18:43;;;;;;;11.82;7.72;;;8.10;99.90;;;;;;4967443;28;20031;-71
2023/01/08 04:21:08;;;;;;;9.13;6.90;;;8.00;99.90;;;;;;4971796;28;20049;-70
2023/01/08 04:23:34;;;;;;;8.07;6.05;;;8.00;99.90;;;;;;4976597;28;20387;-70
2023/01/08 04:26:03;;;;;;;14.27;7.40;;;8.00;99.90;;;;;;4977978;28;20467;-70
2023/01/08 04:28:29;;;;;;;10.68;6.93;;;8.00;99.90;;;;;;4977145;28;20031;-71
2023/01/08 04:30:55;;;;;;;10.73;7.03;;;8.00;99.90;;;;;;4958745;28;20042;-70
2023/01/08 04:33:20;;;;;;;11.18;7.97;;;8.00;99.90;;;;;;4972933;28;20035;-70
2023/01/08 04:35:46;;;;;;;10.40;6.97;;;8.00;99.90;;;;;;4977476;28;20031;-70
2023/01/08 04:38:12;;;;;;;10.45;6.88;;;8.00;99.90;;;;;;4969820;28;20051;-70
2023/01/08 04:40:37;;;;;;;11.68;6.43;;;7.90;99.90;;;;;;4958221;28;20050;-70
2023/01/08 04:43:03;;;;;;;14.20;7.63;;;7.90;99.90;;;;;;4958110;28;20061;-70
2023/01/08 04:45:28;;;;;;;12.48;8.00;;;7.90;99.90;;;;;;4958318;28;20063;-70
2023/01/08 04:47:58;;;;;;;11.75;7.30;;;8.00;99.90;;;;;;4958574;28;20086;-70
2023/01/08 04:50:24;;;;;;;12.38;6.55;;;8.00;99.90;;;;;;4958049;28;20446;-70
2023/01/08 04:52:51;;;;;;;16.55;7.07;;;8.00;99.90;;;;;;4958068;28;20059;-70
2023/01/08 04:55:17;;;;;;;12.93;7.53;;;7.90;99.90;;;;;;4958175;28;20041;-70
2023/01/08 04:57:43;;;;;;;14.35;7.80;;;7.90;99.90;;;;;;4968334;28;20031;-70
2023/01/08 05:00:09;;;;;;;11.40;7.28;;;7.90;99.90;;;;;;4977858;28;20050;-70
2023/01/08 05:02:35;;;;;;;10.75;7.57;;;7.80;99.90;;;;;;4977232;28;20042;-69
2023/01/08 05:05:00;;;;;;;14.25;8.30;;;7.80;99.90;;;;;;4977441;28;20026;-70
2023/01/08 05:07:26;;;;;;;13.80;8.55;;;7.70;99.90;;;;;;4976971;28;20077;-70
2023/01/08 05:09:52;;;;;;;12.57;7.70;;;7.80;99.90;;;;;;4977083;28;20058;-71
2023/01/08 05:12:17;;;;;;;12.13;8.02;;;7.90;99.90;;;;;;4977117;28;20019;-70
2023/01/08 05:14:43;;;;;;;11.88;8.48;;;7.90;99.90;;;;;;4976942;28;20023;-70
2023/01/08 05:17:08;;;;;;;10.82;7.90;;;7.90;99.90;;;;;;4976885;28;20033;-71
2023/01/08 05:19:34;;;;;;;13.68;8.43;;;7.90;99.90;;;;;;4976611;28;20037;-70
2023/01/08 05:21:59;;;;;;;10.18;7.53;;;8.00;99.90;;;;;;4976596;28;20023;-71
2023/01/08 05:24:25;;;;;;;12.38;8.80;;;8.00;99.90;;;;;;4965886;28;20049;-71
2023/01/08 05:26:50;;;;;;;11.95;8.48;;;8.10;99.90;;;;;;4972261;28;20114;-70
2023/01/08 05:29:16;;;;;;;13.05;8.07;;;8.00;99.90;;;;;;4957278;28;20497;-70
2023/01/08 05:31:42;;;;;;;9.70;7.72;;;8.00;99.90;;;;;;4959341;28;20035;-70
2023/01/08 05:34:07;;;;;;;9.75;7.68;;;8.00;99.90;;;;;;4956910;28;20031;-70
2023/01/08 05:36:33;;;;;;;14.07;8.88;;;7.90;99.90;;;;;;4957102;28;20062;-70
2023/01/08 05:38:58;;;;;;;12.43;8.75;;;7.90;99.90;;;;;;4966699;28;20110;-70
2023/01/08 05:41:24;;;;;;;16.27;8.43;;;8.00;99.90;;;;;;4976344;28;20031;-70
2023/01/08 05:43:49;;;;;;;14.02;8.43;;;8.00;99.90;;;;;;4976642;28;20027;-70
2023/01/08 05:46:15;;;;;;;15.30;9.50;;;8.00;99.90;;;;;;4974977;28;20027;-70
2023/01/08 05:48:40;;;;;;;12.35;8.32;;;7.90;99.90;;;;;;4976511;28;20402;-70
2023/01/08 05:51:06;;;;;;;14.35;8.07;;;7.90;99.90;;;;;;4976468;28;20066;-70
2023/01/08 05:53:32;;;;;;;14.88;9.00;;;7.90;99.90;;;;;;4976694;28;20034;-70
2023/01/08 05:56:02;;;;;;;14.52;8.32;;;7.80;99.90;;;;;;4976067;28;20027;-70
2023/01/08 05:58:29;;;;;;;14.00;8.10;;;7.90;99.90;;;;;;4975981;28;20121;-70
2023/01/08 06:00:59;;;;;;;16.58;9.13;;;7.80;99.90;;;;;;4967407;28;20023;-71
2023/01/08 06:03:25;;;;;;;12.27;8.23;;;7.80;99.90;;;;;;4976053;28;20087;-70
2023/01/08 06:05:50;;;;;;;12.07;8.57;;;7.80;99.90;;;;;;4975836;28;20035;-70
2023/01/08 06:08:16;;;;;;;10.98;8.13;;;7.70;99.90;;;;;;4975899;28;20035;-70
2023/01/08 06:10:41;;;;;;;11.65;7.50;;;7.70;99.90;;;;;;4976168;28;20030;-70
2023/01/08 06:13:08;;;;;;;14.25;8.18;;;7.70;99.90;;;;;;4976330;28;20026;-70
2023/01/08 06:15:34;;;;;;;18.00;8.73;;;7.70;99.90;;;;;;4975667;28;20030;-70
2023/01/08 06:18:03;;;;;;;15.25;7.13;;;7.70;99.90;;;;;;4975574;28;20027;-71
2023/01/08 06:20:29;;;;;;;11.25;7.22;;;7.70;99.90;;;;;;4976193;28;20479;-71
2023/01/08 06:22:54;;;;;;;10.68;7.97;;;7.70;99.90;;;;;;4975572;28;20066;-70
2023/01/08 06:25:20;;;;;;;14.63;7.00;;;7.70;99.90;;;;;;4976179;28;20030;-70
2023/01/08 06:27:50;;;;;;;12.55;6.07;;;7.70;99.90;;;;;;4975402;28;20483;-71
2023/01/08 06:30:16;;;;;;;12.02;6.60;;;7.70;99.90;;;;;;4976053;28;20523;-70
2023/01/08 06:32:42;;;;;;;9.93;5.40;;;7.70;99.90;;;;;;4975972;28;20096;-70
2023/01/08 06:35:08;;;;;;;13.20;5.70;;;7.70;99.90;;;;;;4975417;28;20411;-70
2023/01/08 06:37:33;;;;;;;11.07;5.90;;;7.70;99.90;;;;;;4975116;28;20042;-70
2023/01/08 06:39:59;;;;;;;8.85;5.32;;;7.60;99.90;;;;;;4975465;28;20062;-70
2023/01/08 06:42:24;;;;;;;16.65;4.57;;;7.60;99.90;;;;;;4975288;28;20034;-71
2023/01/08 06:44:50;;;;;;;16.45;4.55;;;7.50;99.90;;;;;;4975107;28;20395;-70
2023/01/08 06:47:15;;;;;;;12.10;3.90;;;7.50;99.90;;;;;;4974842;28;20487;-70
2023/01/08 06:49:41;;;;;;;12.43;4.18;;;7.50;99.90;;;;;;4976194;28;20042;-70
2023/01/08 06:52:06;;;;;;;13.90;3.95;;;7.40;99.90;;;;;;4975309;28;20509;-70
2023/01/08 06:54:32;;;;;;;18.92;5.18;;;7.40;99.90;;;;;;4975131;28;20031;-70
2023/01/08 06:56:57;;;;;;;13.23;3.92;;;7.40;99.90;;;;;;4974879;28;20435;-70
2023/01/08 06:59:23;;;;;;;19.30;3.50;;;7.40;99.90;;;;;;4974945;28;20488;-70
2023/01/08 07:01:49;;;;;;;13.57;3.45;;;7.40;99.90;;;;;;4975285;28;20023;-70
2023/01/08 07:04:15;;;;;;;12.45;3.25;;;7.40;99.90;;;;;;4973750;28;20019;-70
2023/01/08 07:06:41;;;;;;;16.60;2.72;;;7.40;99.90;;;;;;4974825;28;20475;-70
2023/01/08 07:09:08;;;;;;;15.73;3.78;;;7.40;99.90;;;;;;4974842;28;20041;-70
2023/01/08 07:11:33;;;;;;;13.82;2.97;;;7.40;99.90;;;;;;4974788;28;20570;-70
2023/01/08 07:13:59;;;;;;;10.80;2.78;;;7.30;99.90;;;;;;4975248;28;20109;-70
2023/01/08 07:16:24;;;;;;;12.73;2.90;;;7.30;99.90;;;;;;4974964;28;20114;-70
2023/01/08 07:18:50;;;;;;;15.88;2.83;;;7.20;99.90;;;;;;4974530;28;20108;-71
2023/01/08 07:21:15;;;;;;;10.57;2.80;;;7.20;99.90;;;;;;4975206;28;20075;-70
2023/01/08 07:23:41;;;;;;;16.10;3.03;;;7.20;99.90;;;;;;4974639;28;20478;-71
2023/01/08 07:26:07;;;;;;;15.15;3.13;;;7.20;99.90;;;;;;4974722;28;20046;-70
2023/01/08 07:28:33;;;;;;;15.70;3.15;;;7.10;99.90;;;;;;4973535;28;20023;-70
2023/01/08 07:31:02;;;;;;;23.83;3.60;;;7.00;99.90;;;;;;4974705;28;20029;-70
2023/01/08 07:33:28;;;;;;;16.60;2.90;;;7.00;99.90;;;;;;4974687;28;20102;-71
2023/01/08 07:35:54;;;;;;;18.05;3.00;;;6.90;99.90;;;;;;4974650;28;20122;-70
2023/01/08 07:38:20;;;;;;;28.10;4.63;;;7.00;99.90;;;;;;4974922;28;20435;-70
2023/01/08 07:40:46;;;;;;;25.27;3.65;;;6.90;99.90;;;;;;4974525;28;20499;-70
2023/01/08 07:43:12;;;;;;;23.42;4.47;;;7.00;99.90;;;;;;4974604;28;20058;-70
2023/01/08 07:45:38;;;;;;;25.15;3.10;;;6.90;99.90;;;;;;4974863;28;20471;-70
2023/01/08 07:48:04;;;;;;;21.70;2.72;;;6.90;99.90;;;;;;4974287;28;20034;-70
2023/01/08 07:50:30;;;;;;;23.77;4.10;;;6.90;99.90;;;;;;4974528;28;20027;-70
2023/01/08 07:53:00;;;;;;;16.20;2.60;;;7.00;99.90;;;;;;4974549;28;20030;-70
2023/01/08 07:55:27;;;;;;;9.18;2.50;;;6.90;99.90;;;;;;4974859;28;20031;-70
2023/01/08 07:57:53;;;;;;;17.23;2.95;;;7.00;99.90;;;;;;4975996;28;20162;-71
2023/01/08 08:00:19;;;;;;;13.13;2.83;;;7.00;99.90;;;;;;4978253;28;20120;-71
2023/01/08 08:02:44;;;;;;;15.65;2.55;;;7.10;99.90;;;;;;4978789;28;20023;-70
2023/01/08 08:05:10;;;;;;;16.45;2.70;;;7.20;99.90;;;;;;4978364;28;20035;-70
2023/01/08 08:07:35;;;;;;;14.00;3.17;;;7.20;99.90;;;;;;4972234;28;20023;-71
2023/01/08 08:10:03;;;;;;;27.10;3.92;;;7.20;99.90;;;;;;4966394;28;20034;-70
2023/01/08 08:12:28;;;;;;;14.45;2.60;;;7.20;99.90;;;;;;4972313;28;20037;-70
2023/01/08 08:14:54;;;;;;;14.75;2.88;;;7.30;99.90;;;;;;4968181;28;20026;-71
2023/01/08 08:17:19;;;;;;;25.90;3.55;;;7.40;99.90;;;;;;4962243;28;20067;-72
2023/01/08 08:19:45;;;;;;;14.93;2.83;;;7.40;99.90;;;;;;4970305;28;20368;-72
2023/01/08 08:22:11;;;;;;;18.90;3.17;;;7.50;99.90;;;;;;4972023;28;20050;-71
2023/01/08 08:24:37;;;;;;;17.85;3.45;;;7.50;99.90;;;;;;4962926;28;20030;-71
2023/01/08 08:27:03;;;;;;;7.43;3.33;;;7.60;99.90;;;;;;4961756;28;20023;-71
2023/01/08 08:29:28;;;;;;;7.80;2.60;;;7.60;99.90;;;;;;4969833;28;20085;-70
2023/01/08 08:31:54;;;;;;;22.60;3.38;;;7.70;99.90;;;;;;4964728;28;20047;-71
2023/01/08 08:34:21;;;;;;;18.23;3.80;;;7.70;99.90;;;;;;4966746;28;20026;-71
2023/01/08 08:36:47;;;;;;;13.75;3.38;;;7.70;99.90;;;;;;4971758;28;20039;-70
2023/01/08 08:39:13;;;;;;;17.08;5.03;;;7.60;99.90;;;;;;4965876;28;20031;-71
2023/01/08 08:41:39;;;;;;;10.70;5.45;;;7.70;99.90;;;;;;4964857;28;20093;-71
2023/01/08 08:44:04;;;;;;;13.48;4.90;;;7.70;99.90;;;;;;4962392;28;20030;-71
2023/01/08 08:46:30;;;;;;;9.77;4.70;;;7.70;99.90;;;;;;4972318;28;20030;-70
2023/01/08 08:48:55;;;;;;;21.92;6.53;;;7.70;99.90;;;;;;4964141;28;20050;-71
2023/01/08 08:51:21;;;;;;;15.15;6.22;;;7.70;99.90;;;;;;4970093;28;20045;-71
2023/01/08 08:53:46;;;;;;;12.77;7.22;;;7.70;99.90;;;;;;4959836;28;20042;-71
2023/01/08 08:56:12;;;;;;;12.85;7.32;;;7.80;99.90;;;;;;4974869;23;20051;-70
2023/01/08 08:58:40;;;;;;;21.75;7.93;;;7.80;99.90;;;;;;4987132;28;20487;-70
2023/01/08 09:01:07;;;;;;;17.08;8.23;;;7.80;99.90;;;;;;4995718;28;20018;-70
2023/01/08 09:03:33;;;;;;;16.00;9.20;;;7.80;99.90;;;;;;4996386;28;20088;-70
2023/01/08 09:05:59;;;;;;;17.95;8.40;;;7.90;99.90;;;;;;4985563;28;20033;-70
2023/01/08 09:08:25;;;;;;;18.20;9.38;;;7.80;99.90;;;;;;4976248;28;20027;-70
2023/01/08 09:10:50;;;;;;;23.55;11.73;;;7.90;99.90;;;;;;4974041;28;20031;-70
2023/01/08 09:13:16;;;;;;;17.10;10.63;;;8.00;99.90;;;;;;4962504;28;20027;-70
2023/01/08 09:15:42;;;;;;;18.70;11.27;;;8.00;99.90;;;;;;4967892;28;20019;-70
2023/01/08 09:18:07;;;;;;;18.88;11.13;;;8.00;99.90;;;;;;4976690;28;20031;-70
2023/01/08 09:20:33;;;;;;;21.85;11.60;;;8.00;99.90;;;;;;4976707;28;20022;-70
2023/01/08 09:23:00;;;;;;;19.40;13.35;;;8.10;99.90;;;;;;4976447;28;20098;-70
2023/01/08 09:25:26;;;;;;;16.58;11.95;;;8.10;99.90;;;;;;4976551;28;20429;-70
2023/01/08 09:28:02;;;;;;;25.92;13.63;;;8.10;99.90;;;;;;4976423;28;20031;-70
2023/01/08 09:30:28;;;;;;;19.08;12.70;;;8.10;99.90;;;;;;4970774;28;20027;-70
2023/01/08 09:32:58;;;;;;;24.02;12.65;;;8.10;99.90;;;;;;4969482;28;20394;-70
2023/01/08 09:35:24;;;;;;;16.45;11.23;;;8.10;99.90;;;;;;4976318;28;20031;-70
2023/01/08 09:37:51;;;;;;;19.60;11.38;;;8.10;99.90;;;;;;4976120;28;20501;-70
2023/01/08 09:40:17;;;;;;;18.73;11.43;;;8.10;99.90;;;;;;4976440;28;20098;-69
2023/01/08 09:42:45;;;;;;;15.52;11.27;;;8.00;99.90;;;;;;4976366;28;20085;-70
2023/01/08 09:45:23;;;;;;;19.70;10.93;;;8.00;99.90;;;;;;4962639;28;20031;-70
2023/01/08 09:47:49;;;;;;;17.92;10.93;;;8.00;99.90;;;;;;4969297;28;20085;-70
2023/01/08 09:50:14;;;;;;;15.80;9.48;;;8.00;99.90;;;;;;4970595;28;20035;-70
2023/01/08 09:52:40;;;;;;;17.42;10.38;;;8.00;99.90;;;;;;4975764;28;20038;-70
2023/01/08 09:55:12;;;;;;;18.30;10.02;;;8.00;99.90;;;;;;4976063;28;20054;-70
2023/01/08 09:57:38;;;;;;;15.63;10.57;;;8.00;99.90;;;;;;4975873;28;20034;-69
2023/01/08 10:00:10;;;;;;;16.65;9.90;;;8.00;99.90;;;;;;4975836;28;20086;-70
2023/01/08 10:02:38;;;;;;;16.00;10.80;;;8.00;99.90;;;;;;4975945;28;20047;-70
2023/01/08 10:05:18;;;;;;;15.30;10.05;;;8.00;99.90;;;;;;4975747;28;20023;-70
2023/01/08 10:07:45;;;;;;;25.20;10.80;;;7.90;99.90;;;;;;4975552;28;20094;-70
2023/01/08 10:10:20;;;;;;;17.23;12.63;;;8.00;99.90;;;;;;4975744;28;20027;-70
2023/01/08 10:12:48;;;;;;;19.65;13.80;;;8.00;99.90;;;;;;4963422;28;20017;-70
2023/01/08 10:15:17;;;;;;;27.52;15.82;;;8.00;99.90;;;;;;4975500;28;20491;-70
2023/01/08 10:17:57;;;;;;;23.88;14.82;;;8.00;99.90;;;;;;4975612;28;20391;-69
2023/01/08 10:20:24;;;;;;;24.27;15.73;;;8.00;99.90;;;;;;4975011;28;20102;-70
2023/01/08 10:22:55;;;;;;;21.63;15.10;;;8.00;99.90;;;;;;4975400;28;20022;-70
2023/01/08 10:25:26;;;;;;;22.00;15.35;;;8.00;99.90;;;;;;4975983;28;20475;-69
2023/01/08 10:28:00;;;;;;;23.52;16.67;;;8.00;99.90;;;;;;4975772;28;20035;-69
2023/01/08 10:30:33;;;;;;;20.23;14.75;;;8.00;99.90;;;;;;4975313;28;20495;-70
2023/01/08 10:33:08;;;;;;;25.40;15.15;;;8.10;99.90;;;;;;4975597;28;20031;-70
2023/01/08 10:35:39;;;;;;;27.77;14.90;;;8.10;99.90;;;;;;4975685;28;20497;-70
2023/01/08 10:38:05;;;;;;;19.05;13.55;;;8.10;99.90;;;;;;4975235;28;20038;-70
2023/01/08 10:40:45;;;;;;;23.02;12.75;;;8.10;99.90;;;;;;4975298;28;20022;-70
2023/01/08 10:43:18;;;;;;;25.50;12.77;;;8.10;99.90;;;;;;4975162;28;20414;-70
2023/01/08 10:45:55;;;;;;;20.52;13.15;;;8.20;99.90;;;;;;4975158;28;20076;-70
2023/01/08 10:48:22;;;;;;;24.25;12.73;;;8.20;99.90;;;;;;4975420;28;20037;-70
2023/01/08 10:50:47;;;;;;;20.58;12.25;;;8.20;99.90;;;;;;4975238;28;20105;-70
2023/01/08 10:53:25;;;;;;;16.67;12.35;;;8.20;99.90;;;;;;4975151;28;20526;-70
2023/01/08 10:56:02;;;;;;;20.13;10.98;;;8.20;99.90;;;;;;4974179;28;20038;-70
2023/01/08 10:58:29;;;;;;;22.42;11.38;;;8.20;99.90;;;;;;4975223;28;20042;-70
2023/01/08 11:01:07;;;;;;;16.63;11.07;;;8.20;99.90;;;;;;4975096;28;20105;-69
2023/01/08 11:03:32;;;;;;;19.60;11.38;;;8.20;99.90;;;;;;4974851;28;20057;-70
2023/01/08 11:05:58;;;;;;;22.98;11.30;;;8.20;99.90;;;;;;4975078;28;20109;-69
2023/01/08 11:08:24;;;;;;;20.95;11.27;;;8.30;99.90;;;;;;4975154;28;20065;-69
2023/01/08 11:10:58;;;;;;;23.30;10.57;;;8.30;99.90;;;;;;4974830;28;20023;-69
2023/01/08 11:13:25;;;;;;;16.52;10.38;;;8.30;99.90;;;;;;4975087;28;20085;-69
2023/01/08 11:16:03;;;;;;;20.27;9.68;;;8.40;99.90;;;;;;4975093;28;20081;-69
2023/01/08 11:18:29;;;;;;;17.27;9.95;;;8.30;99.90;;;;;;4974650;28;20019;-70
2023/01/08 11:21:07;;;;;;;18.73;10.85;;;8.30;99.90;;;;;;4975028;28;20475;-70
2023/01/08 11:23:33;;;;;;;21.67;9.50;;;8.40;99.90;;;;;;4975527;28;20015;-69
2023/01/08 11:26:03;;;;;;;21.90;9.70;;;8.40;99.90;;;;;;4974954;28;20435;-69
2023/01/08 11:29:06;;;;;;;14.35;9.10;;;8.40;99.90;;;;;;4974701;28;20027;-70
2023/01/08 11:32:07;;;;;;;14.20;8.98;;;8.40;99.90;;;;;;4974777;28;20038;-70
2023/01/08 11:34:59;;;;;;;31.55;8.35;;;8.50;99.90;;;;;;4979313;28;20062;-69
2023/01/08 11:37:27;;;;;;;17.55;7.18;;;8.50;99.90;;;;;;4976793;28;20034;-70
2023/01/08 11:39:55;;;;;;;24.17;7.60;;;8.50;99.90;;;;;;4978859;28;20475;-70
2023/01/08 11:42:52;;;;;;;17.77;6.85;;;8.50;99.90;;;;;;4977913;28;20470;-69
2023/01/08 11:45:33;;;;;;;9.27;4.97;;;8.40;99.90;;;;;;4959429;28;20024;-70
2023/01/08 11:48:24;;;;;;;15.45;5.43;;;8.40;99.90;;;;;;4970714;28;20027;-70
2023/01/08 11:51:29;;;;;;;9.23;5.40;;;8.60;99.90;;;;;;4964960;28;20063;-69
2023/01/08 11:54:09;;;;;;;15.73;5.10;;;8.70;99.90;;;;;;4959008;28;20039;-69
2023/01/08 11:57:09;;;;;;;24.13;5.70;;;8.80;99.90;;;;;;4958916;28;20039;-69
2023/01/08 11:59:34;;;;;;;17.88;5.00;;;8.80;99.90;;;;;;4959257;29;20410;-69
2023/01/08 12:02:24;;;;;;;9.90;4.05;;;8.70;99.90;;;;;;4959016;28;20027;-70
2023/01/08 12:05:05;;;;;;;18.25;4.28;;;8.60;99.90;;;;;;4958977;29;20030;-69
2023/01/08 12:07:48;;;;;;;13.75;4.28;;;8.60;99.90;;;;;;4968299;28;20033;-69
2023/01/08 12:10:29;;;;;;;14.83;3.97;;;8.60;99.90;;;;;;4978523;28;20106;-69
2023/01/08 12:13:05;;;;;;;14.57;4.32;;;8.70;99.90;;;;;;4978378;28;20055;-69
2023/01/08 12:15:42;;;;;;;15.85;3.97;;;8.70;99.90;;;;;;4976815;28;20033;-69
2023/01/08 12:18:11;;;;;;;14.63;3.88;;;8.70;99.90;;;;;;4977831;28;20497;-70
2023/01/08 12:20:54;;;;;;;14.02;4.38;;;8.70;99.90;;;;;;4978257;28;20031;-69
2023/01/08 12:23:26;;;;;;;14.27;5.60;;;8.80;99.90;;;;;;4977992;28;20023;-69
2023/01/08 12:26:23;;;;;;;13.65;4.93;;;8.80;99.90;;;;;;4977974;28;20031;-69
2023/01/08 12:29:05;;;;;;;15.32;4.65;;;8.90;99.90;;;;;;4978007;28;20031;-69
2023/01/08 12:32:08;;;;;;;9.70;4.65;;;8.80;99.90;;;;;;4977622;28;20097;-70
2023/01/08 12:34:36;;;;;;;17.40;5.35;;;8.80;99.90;;;;;;4977965;28;20022;-69
2023/01/08 12:37:14;;;;;;;25.05;6.45;;;8.80;99.90;;;;;;4977454;28;20483;-70
2023/01/08 12:40:05;;;;;;;18.88;6.28;;;8.80;99.90;;;;;;4977529;28;20022;-70
2023/01/08 12:42:37;;;;;;;17.88;7.25;;;8.90;99.90;;;;;;4977864;28;20022;-70
2023/01/08 12:45:06;;;;;;;14.52;6.55;;;8.90;99.90;;;;;;4977206;28;20023;-70
2023/01/08 12:47:36;;;;;;;16.48;6.55;;;9.20;99.90;;;;;;4977298;28;20376;-70
2023/01/08 12:50:13;;;;;;;16.05;7.25;;;9.10;99.90;;;;;;4977677;28;20035;-69
2023/01/08 12:52:52;;;;;;;14.90;7.05;;;9.20;99.90;;;;;;4958191;28;20027;-69
2023/01/08 12:55:50;;;;;;;17.10;7.10;;;9.30;99.90;;;;;;4956933;29;20537;-70
2023/01/08 12:58:24;;;;;;;15.88;7.53;;;9.40;99.90;;;;;;4957875;28;20051;-69
2023/01/08 13:01:10;;;;;;;20.33;6.80;;;9.30;99.90;;;;;;4968121;28;20023;-69